createdAt,value
2023-11-17T00:00:03.543Z,90.49
2023-11-17T00:01:03.501Z,90.90
2023-11-17T00:02:03.524Z,90.69
2023-11-17T00:03:03.653Z,90.59
2023-11-17T00:04:03.666Z,90.66
2023-11-17T00:05:03.505Z,91.31
2023-11-17T00:06:03.485Z,91.00
2023-11-17T00:07:03.500Z,90.14
2023-11-17T00:08:03.588Z,89.52
2023-11-17T00:09:03.434Z,88.64
2023-11-17T00:10:03.506Z,89.97
2023-11-17T00:11:03.424Z,89.62
2023-11-17T00:12:03.449Z,89.87
2023-11-17T00:13:03.437Z,90.08
2023-11-17T00:14:03.454Z,90.18
2023-11-17T00:15:03.455Z,89.77
2023-11-17T00:16:03.467Z,89.56
2023-11-17T00:17:03.489Z,89.50
2023-11-17T00:18:03.430Z,89.67
2023-11-17T00:19:03.412Z,89.56
2023-11-17T00:20:03.417Z,89.05
2023-11-17T00:21:03.394Z,89.97
2023-11-17T00:22:03.402Z,89.40
2023-11-17T00:23:03.415Z,89.77
2023-11-17T00:24:03.392Z,89.61
2023-11-17T00:25:03.431Z,90.08
2023-11-17T00:26:03.384Z,90.12
2023-11-17T00:27:03.346Z,90.57
2023-11-17T00:28:03.399Z,90.43
2023-11-17T00:29:03.352Z,90.53
2023-11-17T00:30:03.370Z,90.12
2023-11-17T00:31:03.403Z,89.81
2023-11-17T00:32:03.354Z,89.87
2023-11-17T00:33:03.358Z,89.67
2023-11-17T00:34:03.432Z,89.81
2023-11-17T00:35:03.390Z,90.64
2023-11-17T00:36:03.324Z,90.78
2023-11-17T00:37:04.419Z,90.84
2023-11-17T00:38:03.301Z,90.43
2023-11-17T00:39:03.309Z,90.47
2023-11-17T00:40:03.371Z,90.53
2023-11-17T00:41:05.749Z,90.78
2023-11-17T00:42:03.269Z,90.43
2023-11-17T00:43:03.269Z,90.47
2023-11-17T00:44:03.266Z,90.67
2023-11-17T00:45:03.254Z,90.43
2023-11-17T00:46:03.351Z,90.88
2023-11-17T00:47:03.326Z,90.92
2023-11-17T00:48:03.283Z,91.25
2023-11-17T00:49:03.339Z,91.40
2023-11-17T00:50:03.227Z,91.71
2023-11-17T00:51:03.255Z,91.71
2023-11-17T00:52:03.278Z,91.40
2023-11-17T00:53:03.227Z,91.81
2023-11-17T00:54:03.253Z,91.81
2023-11-17T00:55:03.291Z,91.50
2023-11-17T00:56:03.223Z,90.57
2023-11-17T00:57:03.199Z,90.78
2023-11-17T00:58:03.282Z,90.78
2023-11-17T00:59:03.240Z,90.67
2023-11-17T01:00:03.198Z,90.99
2023-11-17T01:01:03.236Z,90.88
2023-11-17T01:02:03.236Z,90.57
2023-11-17T01:03:03.204Z,91.19
2023-11-17T01:04:03.202Z,90.67
2023-11-17T01:05:03.176Z,90.78
2023-11-17T01:06:03.179Z,90.88
2023-11-17T01:07:03.202Z,90.94
2023-11-17T01:08:03.113Z,90.33
2023-11-17T01:09:03.153Z,89.81
2023-11-17T01:10:03.192Z,90.01
2023-11-17T01:11:03.107Z,89.61
2023-11-17T01:12:03.146Z,89.81
2023-11-17T01:13:03.220Z,89.71
2023-11-17T01:14:03.093Z,90.01
2023-11-17T01:15:03.137Z,89.71
2023-11-17T01:16:03.121Z,89.75
2023-11-17T01:17:03.160Z,89.85
2023-11-17T01:18:03.143Z,89.95
2023-11-17T01:19:03.098Z,89.54
2023-11-17T01:20:03.103Z,89.75
2023-11-17T01:21:03.113Z,89.85
2023-11-17T01:22:03.081Z,89.75
2023-11-17T01:23:03.082Z,90.06
2023-11-17T01:24:03.045Z,90.57
2023-11-17T01:25:03.130Z,90.47
2023-11-17T01:26:03.056Z,90.16
2023-11-17T01:27:03.064Z,90.67
2023-11-17T01:28:03.051Z,90.82
2023-11-17T01:29:03.049Z,90.78
2023-11-17T01:30:03.046Z,90.78
2023-11-17T01:31:03.046Z,90.57
2023-11-17T01:32:03.004Z,91.50
2023-11-17T01:33:03.080Z,91.40
2023-11-17T01:34:04.059Z,91.50
2023-11-17T01:35:03.038Z,91.91
2023-11-17T01:36:03.002Z,92.22
2023-11-17T01:37:03.046Z,92.43
2023-11-17T01:38:02.993Z,92.22
2023-11-17T01:39:03.003Z,92.47
2023-11-17T01:40:03.019Z,92.02
2023-11-17T01:41:02.968Z,92.33
2023-11-17T01:42:02.972Z,91.91
2023-11-17T01:43:02.992Z,91.56
2023-11-17T01:44:02.949Z,91.30
2023-11-17T01:45:03.046Z,91.40
2023-11-17T01:46:03.035Z,90.22
2023-11-17T01:47:03.088Z,90.84
2023-11-17T01:48:02.988Z,91.25
2023-11-17T01:49:02.949Z,91.36
2023-11-17T01:50:02.936Z,90.64
2023-11-17T01:51:04.122Z,90.84
2023-11-17T01:52:02.950Z,90.73
2023-11-17T01:53:05.454Z,90.94
2023-11-17T01:54:02.916Z,90.73
2023-11-17T01:55:02.923Z,91.05
2023-11-17T01:56:02.902Z,90.73
2023-11-17T01:57:02.867Z,91.15
2023-11-17T01:58:02.995Z,91.25
2023-11-17T01:59:02.865Z,90.64
2023-11-17T02:00:02.891Z,90.49
2023-11-17T02:01:03.119Z,90.49
2023-11-17T02:02:02.917Z,90.69
2023-11-17T02:03:03.041Z,90.14
2023-11-17T02:04:02.898Z,89.87
2023-11-17T02:05:02.892Z,89.73
2023-11-17T02:06:02.836Z,90.14
2023-11-17T02:07:02.860Z,90.14
2023-11-17T02:08:02.848Z,89.73
2023-11-17T02:09:02.829Z,89.46
2023-11-17T02:10:02.913Z,89.56
2023-11-17T02:11:02.827Z,89.77
2023-11-17T02:12:02.803Z,89.67
2023-11-17T02:13:02.822Z,89.87
2023-11-17T02:14:02.823Z,89.50
2023-11-17T02:15:02.815Z,89.87
2023-11-17T02:16:02.963Z,89.97
2023-11-17T02:17:02.829Z,89.67
2023-11-17T02:18:02.805Z,89.87
2023-11-17T02:19:02.815Z,90.18
2023-11-17T02:20:02.736Z,89.91
2023-11-17T02:21:02.741Z,90.43
2023-11-17T02:22:02.816Z,90.39
2023-11-17T02:23:02.722Z,89.77
2023-11-17T02:24:02.756Z,89.67
2023-11-17T02:25:02.933Z,89.81
2023-11-17T02:26:02.882Z,90.12
2023-11-17T02:27:02.770Z,90.39
2023-11-17T02:28:02.797Z,89.67
2023-11-17T02:29:02.788Z,90.59
2023-11-17T02:30:02.689Z,90.18
2023-11-17T02:31:02.870Z,90.08
2023-11-17T02:32:02.675Z,90.39
2023-11-17T02:33:02.773Z,90.18
2023-11-17T02:34:02.768Z,90.08
2023-11-17T02:35:02.797Z,89.97
2023-11-17T02:36:02.714Z,89.87
2023-11-17T02:37:02.734Z,89.97
2023-11-17T02:38:02.717Z,90.18
2023-11-17T02:39:02.642Z,89.87
2023-11-17T02:40:02.758Z,90.28
2023-11-17T02:41:02.631Z,89.56
2023-11-17T02:42:02.684Z,89.87
2023-11-17T02:43:02.660Z,89.87
2023-11-17T02:44:02.640Z,89.56
2023-11-17T02:45:02.645Z,89.67
2023-11-17T02:46:02.740Z,89.87
2023-11-17T02:47:02.703Z,89.56
2023-11-17T02:48:02.721Z,89.87
2023-11-17T02:49:02.642Z,89.15
2023-11-17T02:50:02.635Z,88.95
2023-11-17T02:51:02.635Z,89.67
2023-11-17T02:52:02.653Z,89.81
2023-11-17T02:53:02.643Z,89.77
2023-11-17T02:54:02.649Z,89.71
2023-11-17T02:55:02.687Z,89.50
2023-11-17T02:56:02.577Z,89.91
2023-11-17T02:57:02.591Z,89.50
2023-11-17T02:58:02.619Z,89.91
2023-11-17T02:59:02.544Z,89.87
2023-11-17T03:00:02.550Z,89.56
2023-11-17T03:01:02.663Z,89.81
2023-11-17T03:02:02.618Z,89.97
2023-11-17T03:03:02.620Z,89.97
2023-11-17T03:04:02.646Z,89.87
2023-11-17T03:05:02.540Z,89.56
2023-11-17T03:06:02.548Z,89.56
2023-11-17T03:07:02.556Z,89.36
2023-11-17T03:08:02.576Z,88.99
2023-11-17T03:09:02.543Z,88.53
2023-11-17T03:10:02.547Z,89.15
2023-11-17T03:11:02.648Z,88.99
2023-11-17T03:12:02.515Z,88.74
2023-11-17T03:13:02.535Z,88.64
2023-11-17T03:14:02.500Z,88.02
2023-11-17T03:15:02.478Z,88.53
2023-11-17T03:16:02.552Z,88.43
2023-11-17T03:17:02.627Z,88.74
2023-11-17T03:18:02.499Z,88.47
2023-11-17T03:19:02.496Z,88.26
2023-11-17T03:20:02.464Z,88.57
2023-11-17T03:21:02.441Z,88.37
2023-11-17T03:22:02.481Z,87.81
2023-11-17T03:23:02.480Z,88.02
2023-11-17T03:24:02.428Z,87.96
2023-11-17T03:25:02.475Z,87.13
2023-11-17T03:26:02.410Z,87.65
2023-11-17T03:27:03.431Z,87.85
2023-11-17T03:28:02.446Z,87.34
2023-11-17T03:29:02.425Z,87.48
2023-11-17T03:30:02.404Z,86.97
2023-11-17T03:31:02.414Z,87.48
2023-11-17T03:32:02.533Z,87.79
2023-11-17T03:33:02.538Z,87.38
2023-11-17T03:34:02.430Z,87.17
2023-11-17T03:35:02.393Z,87.59
2023-11-17T03:36:02.346Z,88.24
2023-11-17T03:37:02.466Z,87.99
2023-11-17T03:38:02.410Z,87.79
2023-11-17T03:39:02.344Z,87.59
2023-11-17T03:40:02.396Z,87.63
2023-11-17T03:41:02.365Z,87.93
2023-11-17T03:42:02.389Z,88.10
2023-11-17T03:43:02.388Z,87.83
2023-11-17T03:44:02.345Z,88.14
2023-11-17T03:45:02.326Z,88.65
2023-11-17T03:46:02.399Z,88.20
2023-11-17T03:47:02.409Z,88.76
2023-11-17T03:48:02.383Z,88.86
2023-11-17T03:49:02.365Z,89.28
2023-11-17T03:50:02.316Z,89.01
2023-11-17T03:51:02.324Z,89.69
2023-11-17T03:52:02.340Z,88.86
2023-11-17T03:53:02.302Z,88.24
2023-11-17T03:54:03.291Z,88.35
2023-11-17T03:55:02.344Z,88.14
2023-11-17T03:56:02.265Z,88.76
2023-11-17T03:57:02.286Z,88.24
2023-11-17T03:58:02.274Z,88.59
2023-11-17T03:59:02.276Z,88.70
2023-11-17T04:00:02.248Z,88.39
2023-11-17T04:01:02.305Z,88.04
2023-11-17T04:02:02.317Z,87.98
2023-11-17T04:03:02.391Z,88.86
2023-11-17T04:04:02.290Z,88.76
2023-11-17T04:05:02.227Z,88.39
2023-11-17T04:06:02.228Z,88.70
2023-11-17T04:07:02.237Z,88.35
2023-11-17T04:08:02.194Z,88.18
2023-11-17T04:09:02.239Z,88.18
2023-11-17T04:10:02.301Z,88.70
2023-11-17T04:11:02.220Z,87.87
2023-11-17T04:12:02.164Z,88.43
2023-11-17T04:13:02.256Z,89.94
2023-11-17T04:14:02.188Z,88.43
2023-11-17T04:15:03.664Z,89.19
2023-11-17T04:16:02.320Z,90.02
2023-11-17T04:17:02.277Z,90.39
2023-11-17T04:18:02.185Z,88.84
2023-11-17T04:19:02.187Z,88.43
2023-11-17T04:20:02.167Z,89.92
2023-11-17T04:21:02.168Z,89.92
2023-11-17T04:22:02.163Z,89.87
2023-11-17T04:23:02.150Z,90.19
2023-11-17T04:24:02.135Z,89.81
2023-11-17T04:25:02.158Z,90.08
2023-11-17T04:26:02.123Z,88.95
2023-11-17T04:27:02.126Z,88.64
2023-11-17T04:28:02.148Z,87.81
2023-11-17T04:29:02.144Z,88.12
2023-11-17T04:30:02.099Z,88.12
2023-11-17T04:31:02.116Z,88.32
2023-11-17T04:32:02.096Z,88.22
2023-11-17T04:33:02.102Z,88.22
2023-11-17T04:34:02.134Z,88.32
2023-11-17T04:35:02.101Z,87.92
2023-11-17T04:36:02.089Z,88.32
2023-11-17T04:37:02.108Z,88.29
2023-11-17T04:38:02.078Z,88.43
2023-11-17T04:39:02.115Z,88.49
2023-11-17T04:40:02.114Z,88.43
2023-11-17T04:41:02.053Z,88.39
2023-11-17T04:42:02.069Z,87.56
2023-11-17T04:43:02.047Z,88.29
2023-11-17T04:44:02.045Z,88.43
2023-11-17T04:45:02.008Z,88.49
2023-11-17T04:46:02.092Z,88.22
2023-11-17T04:47:02.074Z,88.12
2023-11-17T04:48:02.047Z,87.81
2023-11-17T04:49:02.048Z,87.92
2023-11-17T04:50:01.995Z,88.06
2023-11-17T04:51:02.007Z,87.54
2023-11-17T04:52:01.996Z,88.37
2023-11-17T04:53:01.996Z,88.89
2023-11-17T04:54:02.025Z,88.16
2023-11-17T04:55:02.020Z,88.26
2023-11-17T04:56:01.985Z,88.06
2023-11-17T04:57:02.024Z,87.74
2023-11-17T04:58:01.981Z,88.10
2023-11-17T04:59:01.958Z,88.61
2023-11-17T05:00:01.980Z,89.03
2023-11-17T05:01:02.038Z,89.19
2023-11-17T05:02:01.987Z,88.68
2023-11-17T05:03:02.038Z,88.31
2023-11-17T05:04:02.021Z,88.51
2023-11-17T05:05:01.970Z,88.31
2023-11-17T05:06:01.928Z,88.76
2023-11-17T05:07:01.977Z,88.65
2023-11-17T05:08:01.923Z,88.61
2023-11-17T05:09:01.900Z,90.20
2023-11-17T05:10:02.018Z,89.89
2023-11-17T05:11:01.905Z,89.79
2023-11-17T05:12:01.915Z,90.20
2023-11-17T05:13:01.951Z,90.10
2023-11-17T05:14:01.906Z,90.14
2023-11-17T05:15:01.923Z,89.94
2023-11-17T05:16:01.944Z,90.14
2023-11-17T05:17:01.911Z,89.73
2023-11-17T05:18:01.942Z,90.25
2023-11-17T05:19:01.893Z,90.29
2023-11-17T05:20:01.883Z,91.11
2023-11-17T05:21:01.891Z,90.80
2023-11-17T05:22:01.902Z,91.22
2023-11-17T05:23:02.860Z,91.11
2023-11-17T05:24:01.820Z,91.22
2023-11-17T05:25:01.905Z,91.22
2023-11-17T05:26:01.833Z,90.95
2023-11-17T05:27:01.837Z,91.67
2023-11-17T05:28:01.876Z,91.47
2023-11-17T05:29:01.828Z,91.67
2023-11-17T05:30:01.860Z,91.93
2023-11-17T05:31:01.905Z,92.61
2023-11-17T05:32:01.914Z,91.84
2023-11-17T05:33:01.821Z,91.84
2023-11-17T05:34:01.847Z,90.91
2023-11-17T05:35:01.851Z,91.26
2023-11-17T05:36:01.778Z,92.09
2023-11-17T05:37:01.815Z,91.88
2023-11-17T05:38:01.791Z,91.42
2023-11-17T05:39:01.776Z,91.67
2023-11-17T05:40:01.922Z,91.94
2023-11-17T05:41:01.773Z,90.91
2023-11-17T05:42:01.787Z,91.22
2023-11-17T05:43:01.793Z,90.70
2023-11-17T05:44:01.795Z,91.01
2023-11-17T05:45:01.797Z,91.94
2023-11-17T05:46:01.949Z,91.63
2023-11-17T05:47:01.837Z,91.32
2023-11-17T05:48:01.777Z,91.22
2023-11-17T05:49:01.736Z,90.97
2023-11-17T05:50:01.771Z,90.77
2023-11-17T05:51:01.728Z,91.07
2023-11-17T05:52:01.741Z,91.69
2023-11-17T05:53:01.753Z,91.59
2023-11-17T05:54:01.712Z,91.17
2023-11-17T05:55:01.736Z,90.62
2023-11-17T05:56:01.704Z,90.10
2023-11-17T05:57:01.681Z,89.07
2023-11-17T05:58:01.699Z,88.65
2023-11-17T05:59:01.918Z,89.32
2023-11-17T06:00:01.703Z,90.25
2023-11-17T06:01:01.695Z,90.87
2023-11-17T06:02:01.783Z,90.77
2023-11-17T06:03:01.819Z,90.20
2023-11-17T06:04:01.737Z,90.31
2023-11-17T06:05:01.856Z,90.87
2023-11-17T06:06:01.683Z,90.62
2023-11-17T06:07:01.704Z,90.87
2023-11-17T06:08:01.639Z,90.66
2023-11-17T06:09:01.648Z,91.13
2023-11-17T06:10:01.746Z,90.83
2023-11-17T06:11:01.653Z,90.72
2023-11-17T06:12:01.641Z,90.10
2023-11-17T06:13:01.652Z,90.31
2023-11-17T06:14:01.628Z,89.95
2023-11-17T06:15:01.631Z,90.37
2023-11-17T06:16:01.670Z,90.26
2023-11-17T06:17:01.709Z,90.37
2023-11-17T06:18:01.647Z,89.54
2023-11-17T06:19:01.632Z,90.06
2023-11-17T06:20:01.609Z,90.16
2023-11-17T06:21:01.621Z,89.75
2023-11-17T06:22:01.634Z,89.86
2023-11-17T06:23:01.648Z,89.86
2023-11-17T06:24:01.559Z,89.89
2023-11-17T06:25:01.657Z,90.26
2023-11-17T06:26:01.587Z,90.00
2023-11-17T06:27:01.585Z,90.97
2023-11-17T06:28:01.613Z,90.87
2023-11-17T06:29:02.805Z,90.97
2023-11-17T06:30:02.580Z,91.59
2023-11-17T06:31:01.577Z,91.49
2023-11-17T06:32:01.553Z,91.22
2023-11-17T06:33:01.609Z,92.57
2023-11-17T06:34:01.618Z,92.32
2023-11-17T06:35:01.543Z,91.49
2023-11-17T06:36:01.528Z,92.52
2023-11-17T06:37:01.530Z,92.32
2023-11-17T06:38:01.541Z,92.00
2023-11-17T06:39:01.531Z,92.00
2023-11-17T06:40:01.553Z,91.28
2023-11-17T06:41:01.528Z,91.49
2023-11-17T06:42:01.503Z,91.59
2023-11-17T06:43:01.552Z,91.69
2023-11-17T06:44:01.493Z,91.80
2023-11-17T06:45:01.515Z,91.34
2023-11-17T06:46:01.575Z,91.28
2023-11-17T06:47:01.675Z,90.97
2023-11-17T06:48:01.569Z,92.36
2023-11-17T06:49:01.600Z,92.67
2023-11-17T06:50:01.502Z,93.04
2023-11-17T06:51:01.604Z,93.04
2023-11-17T06:52:01.465Z,92.97
2023-11-17T06:53:01.480Z,93.14
2023-11-17T06:54:01.446Z,92.63
2023-11-17T06:55:02.502Z,92.27
2023-11-17T06:56:01.489Z,91.44
2023-11-17T06:57:01.585Z,90.72
2023-11-17T06:58:01.479Z,90.99
2023-11-17T06:59:01.443Z,90.99
2023-11-17T07:00:01.419Z,90.26
2023-11-17T07:01:01.493Z,90.16
2023-11-17T07:02:01.492Z,90.62
2023-11-17T07:03:01.521Z,90.93
2023-11-17T07:04:01.469Z,90.93
2023-11-17T07:05:01.403Z,90.26
2023-11-17T07:06:02.515Z,90.47
2023-11-17T07:07:01.417Z,90.26
2023-11-17T07:08:01.393Z,89.95
2023-11-17T07:09:01.386Z,90.06
2023-11-17T07:10:01.442Z,89.95
2023-11-17T07:11:01.413Z,89.75
2023-11-17T07:12:01.388Z,89.65
2023-11-17T07:13:01.426Z,89.95
2023-11-17T07:14:01.370Z,90.06
2023-11-17T07:15:01.349Z,88.98
2023-11-17T07:16:01.383Z,89.19
2023-11-17T07:17:01.412Z,89.92
2023-11-17T07:18:01.408Z,89.71
2023-11-17T07:19:01.365Z,89.81
2023-11-17T07:20:01.323Z,90.12
2023-11-17T07:21:01.315Z,89.95
2023-11-17T07:22:01.473Z,89.92
2023-11-17T07:23:01.323Z,90.02
2023-11-17T07:24:01.313Z,90.33
2023-11-17T07:25:01.350Z,88.98
2023-11-17T07:26:01.300Z,88.78
2023-11-17T07:27:01.305Z,88.53
2023-11-17T07:28:01.295Z,88.78
2023-11-17T07:29:01.309Z,88.64
2023-11-17T07:30:01.321Z,88.64
2023-11-17T07:31:01.328Z,88.59
2023-11-17T07:32:01.339Z,88.22
2023-11-17T07:33:01.305Z,88.22
2023-11-17T07:34:01.283Z,88.29
2023-11-17T07:35:01.255Z,87.77
2023-11-17T07:36:01.237Z,87.56
2023-11-17T07:37:01.331Z,87.98
2023-11-17T07:38:01.335Z,88.74
2023-11-17T07:39:01.255Z,89.15
2023-11-17T07:40:01.299Z,89.98
2023-11-17T07:41:01.235Z,89.77
2023-11-17T07:42:01.247Z,90.02
2023-11-17T07:43:01.254Z,89.98
2023-11-17T07:44:01.207Z,89.42
2023-11-17T07:45:01.204Z,89.87
2023-11-17T07:46:01.276Z,89.67
2023-11-17T07:47:01.284Z,90.02
2023-11-17T07:48:01.323Z,90.43
2023-11-17T07:49:01.272Z,89.36
2023-11-17T07:50:01.220Z,90.35
2023-11-17T07:51:01.212Z,89.83
2023-11-17T07:52:01.246Z,89.83
2023-11-17T07:53:01.189Z,90.08
2023-11-17T07:54:01.264Z,91.01
2023-11-17T07:55:01.218Z,91.28
2023-11-17T07:56:01.178Z,90.04
2023-11-17T07:57:01.169Z,89.69
2023-11-17T07:58:01.184Z,89.83
2023-11-17T07:59:01.136Z,89.89
2023-11-17T08:00:01.165Z,89.58
2023-11-17T08:01:01.179Z,89.83
2023-11-17T08:02:01.132Z,89.89
2023-11-17T08:03:01.160Z,90.14
2023-11-17T08:04:01.225Z,89.89
2023-11-17T08:05:01.191Z,89.79
2023-11-17T08:06:01.118Z,89.85
2023-11-17T08:07:01.122Z,88.62
2023-11-17T08:08:01.153Z,89.17
2023-11-17T08:09:01.115Z,88.96
2023-11-17T08:10:01.270Z,88.45
2023-11-17T08:11:01.074Z,88.14
2023-11-17T08:12:01.095Z,88.04
2023-11-17T08:13:01.134Z,88.45
2023-11-17T08:14:01.101Z,88.86
2023-11-17T08:15:01.075Z,89.79
2023-11-17T08:16:01.057Z,89.89
2023-11-17T08:17:01.102Z,89.89
2023-11-17T08:18:01.160Z,90.41
2023-11-17T08:19:10.572Z,88.82
2023-11-17T08:20:03.095Z,88.82
2023-11-17T08:21:01.061Z,89.13
2023-11-17T08:22:01.042Z,89.75
2023-11-17T08:23:01.048Z,88.92
2023-11-17T08:24:01.021Z,88.62
2023-11-17T08:25:01.060Z,89.03
2023-11-17T08:26:02.153Z,88.06
2023-11-17T08:27:00.989Z,87.44
2023-11-17T08:28:01.025Z,87.13
2023-11-17T08:29:01.022Z,86.06
2023-11-17T08:30:01.007Z,87.19
2023-11-17T08:31:01.004Z,87.19
2023-11-17T08:32:01.067Z,87.51
2023-11-17T08:33:01.054Z,86.99
2023-11-17T08:34:00.989Z,85.86
2023-11-17T08:35:00.968Z,86.85
2023-11-17T08:36:00.960Z,86.13
2023-11-17T08:37:01.000Z,86.16
2023-11-17T08:38:00.987Z,86.02
2023-11-17T08:39:00.929Z,85.82
2023-11-17T08:40:00.946Z,86.23
2023-11-17T08:41:00.945Z,86.33
2023-11-17T08:42:01.024Z,85.61
2023-11-17T08:43:00.980Z,85.30
2023-11-17T08:44:00.962Z,84.48
2023-11-17T08:45:00.911Z,85.10
2023-11-17T08:46:01.033Z,85.30
2023-11-17T08:47:00.948Z,84.75
2023-11-17T08:48:00.992Z,86.19
2023-11-17T08:49:00.909Z,84.38
2023-11-17T08:50:03.145Z,86.19
2023-11-17T08:51:01.888Z,87.15
2023-11-17T08:52:00.921Z,86.50
2023-11-17T08:53:00.853Z,86.19
2023-11-17T08:54:00.861Z,86.70
2023-11-17T08:55:00.885Z,86.80
2023-11-17T08:56:00.874Z,86.91
2023-11-17T08:57:00.863Z,85.57
2023-11-17T08:58:00.958Z,86.19
2023-11-17T08:59:00.865Z,87.01
2023-11-17T09:00:00.818Z,85.84
2023-11-17T09:01:00.956Z,85.84
2023-11-17T09:02:00.879Z,83.17
2023-11-17T09:03:00.875Z,83.99
2023-11-17T09:04:00.903Z,84.56
2023-11-17T09:05:00.828Z,84.36
2023-11-17T09:06:00.800Z,83.44
2023-11-17T09:07:00.812Z,83.29
2023-11-17T09:08:00.800Z,82.89
2023-11-17T09:09:00.802Z,82.99
2023-11-17T09:10:00.811Z,83.50
2023-11-17T09:11:00.809Z,84.12
2023-11-17T09:12:01.644Z,83.15
2023-11-17T09:13:00.828Z,83.50
2023-11-17T09:14:00.865Z,80.28
2023-11-17T09:15:00.751Z,81.62
2023-11-17T09:16:00.844Z,82.13
2023-11-17T09:17:00.781Z,80.69
2023-11-17T09:18:00.747Z,81.51
2023-11-17T09:19:00.773Z,81.41
2023-11-17T09:20:00.724Z,81.20
2023-11-17T09:21:00.719Z,80.79
2023-11-17T09:22:00.890Z,80.28
2023-11-17T09:23:00.709Z,79.77
2023-11-17T09:24:00.704Z,79.83
2023-11-17T09:25:00.720Z,79.83
2023-11-17T09:26:00.707Z,79.22
2023-11-17T09:27:00.682Z,79.42
2023-11-17T09:28:00.735Z,80.38
2023-11-17T09:29:00.684Z,78.91
2023-11-17T09:30:00.771Z,77.92
2023-11-17T09:31:00.707Z,78.39
2023-11-17T09:32:00.659Z,78.02
2023-11-17T09:33:00.809Z,78.74
2023-11-17T09:34:00.774Z,78.19
2023-11-17T09:35:00.709Z,78.81
2023-11-17T09:36:00.652Z,79.49
2023-11-17T09:37:00.669Z,79.69
2023-11-17T09:38:01.380Z,79.49
2023-11-17T09:39:00.671Z,79.55
2023-11-17T09:40:00.679Z,78.67
2023-11-17T09:41:00.602Z,78.77
2023-11-17T09:42:00.631Z,79.49
2023-11-17T09:43:00.630Z,76.48
2023-11-17T09:44:00.668Z,76.00
2023-11-17T09:45:00.573Z,76.20
2023-11-17T09:46:00.832Z,78.05
2023-11-17T09:47:00.597Z,78.16
2023-11-17T09:48:00.719Z,77.64
2023-11-17T09:49:00.686Z,77.33
2023-11-17T09:50:00.602Z,78.36
2023-11-17T09:51:00.608Z,77.50
2023-11-17T09:52:00.590Z,77.29
2023-11-17T09:53:00.574Z,76.20
2023-11-17T09:54:00.565Z,76.68
2023-11-17T09:55:00.609Z,76.54
2023-11-17T09:56:00.528Z,76.17
2023-11-17T09:57:00.867Z,77.09
2023-11-17T09:58:00.550Z,76.68
2023-11-17T09:59:00.512Z,76.48
2023-11-17T10:00:00.523Z,76.24
2023-11-17T10:01:00.598Z,73.57
2023-11-17T10:02:00.614Z,74.08
2023-11-17T10:03:01.592Z,76.10
2023-11-17T10:04:00.749Z,75.89
2023-11-17T10:05:00.576Z,73.85
2023-11-17T10:06:00.477Z,73.33
2023-11-17T10:07:00.510Z,74.02
2023-11-17T10:08:00.469Z,71.86
2023-11-17T10:09:00.476Z,71.66
2023-11-17T10:10:00.577Z,72.89
2023-11-17T10:11:00.464Z,74.32
2023-11-17T10:12:00.476Z,74.49
2023-11-17T10:13:00.452Z,73.33
2023-11-17T10:14:00.468Z,73.23
2023-11-17T10:15:00.494Z,73.10
2023-11-17T10:16:00.621Z,70.37
2023-11-17T10:17:00.596Z,72.48
2023-11-17T10:18:00.613Z,73.30
2023-11-17T10:19:00.449Z,72.65
2023-11-17T10:20:00.510Z,71.94
2023-11-17T10:21:00.430Z,70.92
2023-11-17T10:22:00.467Z,69.93
2023-11-17T10:23:00.398Z,71.59
2023-11-17T10:24:00.407Z,71.56
2023-11-17T10:25:00.454Z,71.46
2023-11-17T10:26:00.397Z,70.14
2023-11-17T10:27:00.414Z,69.52
2023-11-17T10:28:00.417Z,71.15
2023-11-17T10:29:00.398Z,71.50
2023-11-17T10:30:00.548Z,71.39
2023-11-17T10:31:00.394Z,71.39
2023-11-17T10:32:15.983Z,66.36
2023-11-17T10:33:14.291Z,67.27
2023-11-17T10:34:02.689Z,68.88
2023-11-17T10:35:00.403Z,69.93
2023-11-17T10:36:00.382Z,69.29
2023-11-17T10:37:00.395Z,70.14
2023-11-17T10:38:00.367Z,70.57
2023-11-17T10:39:00.334Z,70.27
2023-11-17T10:40:05.903Z,69.79
2023-11-17T10:41:02.341Z,71.01
2023-11-17T10:42:00.321Z,70.30
2023-11-17T10:43:00.287Z,71.25
2023-11-17T10:44:00.396Z,70.57
2023-11-17T10:45:00.284Z,71.08
2023-11-17T10:46:00.334Z,71.42
2023-11-17T10:47:00.364Z,72.14
2023-11-17T10:48:00.318Z,71.66
2023-11-17T10:49:00.586Z,71.45
2023-11-17T10:50:00.363Z,72.11
2023-11-17T10:51:00.290Z,72.92
2023-11-17T10:52:00.372Z,72.00
2023-11-17T10:53:00.243Z,72.11
2023-11-17T10:54:00.248Z,72.20
2023-11-17T10:55:00.370Z,71.28
2023-11-17T10:56:00.248Z,72.00
